createdAt,value
2023-04-06T00:00:38.122Z,100373.06
2023-04-06T00:03:04.918Z,100356.72
2023-04-06T00:05:31.902Z,100349.16
2023-04-06T00:07:59.400Z,100403.44
2023-04-06T00:10:26.468Z,100368.63
2023-04-06T00:12:53.727Z,100399.91
2023-04-06T00:15:21.281Z,100346.25
2023-04-06T00:17:48.041Z,100331.75
2023-04-06T00:20:14.832Z,100358.84
2023-04-06T00:22:41.586Z,100347.66
2023-04-06T00:25:08.571Z,100321.19
2023-04-06T00:27:35.487Z,100344.81
2023-04-06T00:30:03.098Z,100338.69
2023-04-06T00:32:29.809Z,100331.97
2023-04-06T00:34:56.520Z,100286.81
2023-04-06T00:37:23.415Z,100345.50
2023-04-06T00:39:50.119Z,100358.34
2023-04-06T00:42:16.808Z,100326.72
2023-04-06T00:44:43.523Z,100359.50
2023-04-06T00:47:10.900Z,100313.06
2023-04-06T00:49:37.644Z,100315.59
2023-04-06T00:52:04.365Z,100290.16
2023-04-06T00:54:31.839Z,100297.59
2023-04-06T00:56:58.881Z,100322.13
2023-04-06T00:59:26.146Z,100310.94
2023-04-06T01:01:52.996Z,100296.66
2023-04-06T01:04:20.146Z,100321.13
2023-04-06T01:06:46.796Z,100300.25
2023-04-06T01:09:13.488Z,100298.81
2023-04-06T01:11:40.134Z,100264.66
2023-04-06T01:14:07.186Z,100282.41
2023-04-06T01:16:34.832Z,100252.16
2023-04-06T01:19:01.698Z,100270.78
2023-04-06T01:21:28.453Z,100292.00
2023-04-06T01:23:55.115Z,100312.50
2023-04-06T01:26:22.007Z,100259.03
2023-04-06T01:28:48.657Z,100277.47
2023-04-06T01:31:15.640Z,100301.53
2023-04-06T01:33:42.444Z,100261.44
2023-04-06T01:36:09.231Z,100238.25
2023-04-06T01:38:36.156Z,100258.81
2023-04-06T01:41:02.855Z,100242.63
2023-04-06T01:43:29.593Z,100256.09
2023-04-06T01:45:56.584Z,100220.91
2023-04-06T01:48:23.316Z,100244.97
2023-04-06T01:50:50.021Z,100229.41
2023-04-06T01:53:17.403Z,100226.75
2023-04-06T01:55:44.063Z,100262.31
2023-04-06T01:58:10.768Z,100245.59
2023-04-06T02:00:37.503Z,100280.28
2023-04-06T02:03:04.488Z,100252.19
2023-04-06T02:05:34.313Z,100268.34
2023-04-06T02:08:00.991Z,100241.91
2023-04-06T02:10:27.673Z,100235.56
2023-04-06T02:12:54.372Z,100198.06
2023-04-06T02:15:21.038Z,100191.69
2023-04-06T02:17:47.856Z,100216.41
2023-04-06T02:20:14.804Z,100225.34
2023-04-06T02:22:41.664Z,100207.56
2023-04-06T02:25:09.039Z,100210.44
2023-04-06T02:27:36.534Z,100266.72
2023-04-06T02:30:06.964Z,100253.22
2023-04-06T02:32:33.689Z,100188.75
2023-04-06T02:35:01.328Z,100241.69
2023-04-06T02:37:28.119Z,100221.84
2023-04-06T02:39:55.595Z,100240.53
2023-04-06T02:42:22.298Z,100248.78
2023-04-06T02:44:48.986Z,100221.03
2023-04-06T02:47:16.143Z,100231.97
2023-04-06T02:49:42.861Z,100204.56
2023-04-06T02:52:09.490Z,100169.78
2023-04-06T02:54:36.175Z,100202.94
2023-04-06T02:57:02.834Z,100269.31
2023-04-06T02:59:32.085Z,100223.34
2023-04-06T03:01:58.868Z,100181.91
2023-04-06T03:04:26.581Z,100199.47
2023-04-06T03:06:54.637Z,100215.50
2023-04-06T03:09:21.364Z,100212.00
2023-04-06T03:11:48.003Z,100222.97
2023-04-06T03:14:14.651Z,100206.09
2023-04-06T03:16:41.342Z,100200.16
2023-04-06T03:19:08.171Z,100151.81
2023-04-06T03:21:35.047Z,100166.97
2023-04-06T03:24:01.698Z,100215.44
2023-04-06T03:26:28.422Z,100223.09
2023-04-06T03:28:55.088Z,100190.44
2023-04-06T03:31:21.821Z,100177.09
2023-04-06T03:33:48.577Z,100180.09
2023-04-06T03:36:15.735Z,100160.38
2023-04-06T03:38:42.426Z,100152.81
2023-04-06T03:41:09.068Z,100184.03
2023-04-06T03:43:35.717Z,100146.03
2023-04-06T03:46:02.647Z,100217.50
2023-04-06T03:48:29.318Z,100180.81
2023-04-06T03:50:56.182Z,100175.06
2023-04-06T03:53:22.900Z,100192.72
2023-04-06T03:55:49.536Z,100191.94
2023-04-06T03:58:16.224Z,100161.09
2023-04-06T04:00:42.945Z,100204.44
2023-04-06T04:03:09.804Z,100147.59
2023-04-06T04:05:36.906Z,100156.91
2023-04-06T04:08:03.910Z,100204.56
2023-04-06T04:10:30.796Z,100144.94
2023-04-06T04:12:57.584Z,100152.56
2023-04-06T04:15:24.376Z,100148.38
2023-04-06T04:17:51.771Z,100207.50
2023-04-06T04:20:18.625Z,100206.09
2023-04-06T04:22:45.376Z,100114.38
2023-04-06T04:25:12.165Z,100120.53
2023-04-06T04:27:38.832Z,100114.72
2023-04-06T04:30:07.025Z,100206.00
2023-04-06T04:32:33.663Z,100167.59
2023-04-06T04:35:00.789Z,100180.66
2023-04-06T04:37:27.461Z,100218.81
2023-04-06T04:39:54.118Z,100202.84
2023-04-06T04:42:20.876Z,100171.09
2023-04-06T04:44:47.549Z,100176.25
2023-04-06T04:47:14.193Z,100176.59
2023-04-06T04:49:40.887Z,100167.13
2023-04-06T04:52:07.562Z,100182.53
2023-04-06T04:54:34.204Z,100175.59
2023-04-06T04:57:01.061Z,100161.81
2023-04-06T04:59:27.886Z,100139.31
2023-04-06T05:01:55.588Z,100168.81
2023-04-06T05:04:24.029Z,100210.41
2023-04-06T05:06:50.761Z,100219.13
2023-04-06T05:09:18.527Z,100168.31
2023-04-06T05:11:45.172Z,100161.16
2023-04-06T05:14:12.061Z,100153.50
2023-04-06T05:16:38.771Z,100178.81
2023-04-06T05:19:05.475Z,100175.88
2023-04-06T05:21:32.841Z,100174.56
2023-04-06T05:23:59.759Z,100168.09
2023-04-06T05:26:26.490Z,100157.41
2023-04-06T05:28:53.217Z,100161.06
2023-04-06T05:31:19.874Z,100142.03
2023-04-06T05:33:46.650Z,100168.44
2023-04-06T05:36:14.959Z,100179.88
2023-04-06T05:38:42.017Z,100182.31
2023-04-06T05:41:08.807Z,100176.72
2023-04-06T05:43:35.587Z,100163.72
2023-04-06T05:46:03.047Z,100180.66
2023-04-06T05:48:29.774Z,100116.59
2023-04-06T05:50:56.621Z,100184.53
2023-04-06T05:53:23.357Z,100159.59
2023-04-06T05:55:50.057Z,100150.97
2023-04-06T05:58:18.245Z,100200.69
2023-04-06T06:00:47.061Z,100201.03
2023-04-06T06:03:14.148Z,100118.03
2023-04-06T06:05:40.918Z,100199.97
2023-04-06T06:08:07.779Z,100173.81
2023-04-06T06:10:34.409Z,100103.78
2023-04-06T06:13:01.328Z,100124.13
2023-04-06T06:15:27.954Z,100156.88
2023-04-06T06:17:54.636Z,100146.84
2023-04-06T06:20:21.366Z,100160.44
2023-04-06T06:22:48.027Z,100185.72
2023-04-06T06:25:14.973Z,100179.78
2023-04-06T06:27:41.667Z,100074.06
2023-04-06T06:30:08.702Z,100168.97
2023-04-06T06:32:35.507Z,100182.50
2023-04-06T06:35:02.242Z,100142.63
2023-04-06T06:37:30.697Z,100146.84
2023-04-06T06:39:58.073Z,100164.72
2023-04-06T06:42:24.877Z,100143.22
2023-04-06T06:44:52.512Z,100145.84
2023-04-06T06:47:19.322Z,100148.59
2023-04-06T06:49:46.006Z,100152.56
2023-04-06T06:52:12.648Z,100136.28
2023-04-06T06:54:39.562Z,100179.94
2023-04-06T06:57:06.381Z,100163.53
2023-04-06T06:59:33.306Z,100136.94
2023-04-06T07:02:00.015Z,100156.50
2023-04-06T07:04:27.152Z,100126.38
2023-04-06T07:06:53.874Z,100156.75
2023-04-06T07:09:20.676Z,100150.88
2023-04-06T07:11:47.532Z,100127.00
2023-04-06T07:14:14.280Z,100141.44
2023-04-06T07:16:42.291Z,100167.78
2023-04-06T07:19:10.633Z,100160.41
2023-04-06T07:21:37.820Z,100194.81
2023-04-06T07:24:04.664Z,100173.94
2023-04-06T07:26:31.456Z,100147.81
2023-04-06T07:28:58.157Z,100163.09
2023-04-06T07:31:24.933Z,100103.53
2023-04-06T07:33:51.660Z,100167.22
2023-04-06T07:36:19.100Z,100128.59
2023-04-06T07:38:47.156Z,100131.00
2023-04-06T07:41:13.914Z,100147.22
2023-04-06T07:43:40.683Z,100147.78
2023-04-06T07:46:07.511Z,100131.31
2023-04-06T07:48:34.280Z,100181.13
2023-04-06T07:51:05.239Z,100170.19
2023-04-06T07:53:32.143Z,100160.97
2023-04-06T07:56:01.840Z,100155.03
2023-04-06T07:58:28.722Z,100136.28
2023-04-06T08:00:56.432Z,100115.25
2023-04-06T08:03:26.718Z,100119.44
2023-04-06T08:05:54.035Z,100151.53
2023-04-06T08:08:22.345Z,100145.72
2023-04-06T08:10:49.914Z,100120.28
2023-04-06T08:13:17.199Z,100131.72
2023-04-06T08:15:44.247Z,100144.41
2023-04-06T08:18:11.369Z,100129.31
2023-04-06T08:20:38.176Z,100140.63
2023-04-06T08:23:05.018Z,100163.13
2023-04-06T08:25:31.759Z,100108.34
2023-04-06T08:27:58.418Z,100180.66
2023-04-06T08:30:25.087Z,100107.31
2023-04-06T08:32:52.045Z,100178.66
2023-04-06T08:35:18.909Z,100190.88
2023-04-06T08:37:45.861Z,100165.56
2023-04-06T08:40:13.828Z,100174.72
2023-04-06T08:42:44.766Z,100161.22
2023-04-06T08:45:11.894Z,100186.31
2023-04-06T08:47:38.696Z,100154.63
2023-04-06T08:50:06.361Z,100184.47
2023-04-06T08:52:35.027Z,100183.03
2023-04-06T08:55:02.368Z,100182.81
2023-04-06T08:57:30.058Z,100184.47
2023-04-06T08:59:58.071Z,100144.16
2023-04-06T09:02:25.906Z,100173.47
2023-04-06T09:04:55.098Z,100138.63
2023-04-06T09:07:22.577Z,100212.06
2023-04-06T09:09:49.265Z,100197.59
2023-04-06T09:12:30.429Z,100153.44
2023-04-06T09:14:58.212Z,100199.03
2023-04-06T09:17:27.340Z,100163.31
2023-04-06T09:19:54.133Z,100170.19
2023-04-06T09:22:21.197Z,100186.69
2023-04-06T09:24:48.826Z,100221.97
2023-04-06T09:27:17.452Z,100215.00
2023-04-06T09:29:45.624Z,100167.53
2023-04-06T09:32:13.187Z,100144.47
2023-04-06T09:34:40.214Z,100178.97
2023-04-06T09:37:20.533Z,100203.03
2023-04-06T09:39:47.740Z,100185.84
2023-04-06T09:42:27.020Z,100183.03
2023-04-06T09:44:53.688Z,100214.66
2023-04-06T09:47:21.105Z,100203.53
2023-04-06T09:49:51.188Z,100214.91
2023-04-06T09:52:19.189Z,100197.66
2023-04-06T09:54:51.172Z,100219.63
2023-04-06T09:57:30.144Z,100210.97
2023-04-06T10:00:13.787Z,100236.91
2023-04-06T10:03:10.870Z,100229.81
2023-04-06T10:05:46.513Z,100229.91
2023-04-06T10:08:15.149Z,100207.66
2023-04-06T10:10:43.627Z,100195.63
2023-04-06T10:13:12.721Z,100215.75
2023-04-06T10:15:41.450Z,100187.50
2023-04-06T10:18:11.087Z,100202.66
2023-04-06T10:20:44.282Z,100226.91
2023-04-06T10:23:23.310Z,100224.78
2023-04-06T10:26:00.968Z,100182.66
2023-04-06T10:28:33.430Z,100190.34
2023-04-06T10:31:02.610Z,100226.69
2023-04-06T10:33:29.850Z,100186.25
2023-04-06T10:35:56.981Z,100201.84
2023-04-06T10:38:43.981Z,100177.28
2023-04-06T10:41:13.718Z,100210.44
2023-04-06T10:43:42.438Z,100189.56
2023-04-06T10:46:10.800Z,100166.69
2023-04-06T10:48:46.518Z,100245.53
2023-04-06T10:51:16.044Z,100222.22
2023-04-06T10:53:44.856Z,100218.72
2023-04-06T10:56:13.262Z,100232.78
2023-04-06T10:58:40.197Z,100232.59
2023-04-06T11:01:07.134Z,100234.53
2023-04-06T11:03:44.353Z,100218.47
2023-04-06T11:06:11.153Z,100220.59
2023-04-06T11:08:40.480Z,100218.06
2023-04-06T11:11:08.693Z,100254.38
2023-04-06T11:13:52.873Z,100260.88
2023-04-06T11:16:24.588Z,100242.50
2023-04-06T11:19:00.843Z,100262.06
2023-04-06T11:21:40.159Z,100243.22
2023-04-06T11:24:23.191Z,100272.13
2023-04-06T11:26:56.127Z,100251.47
2023-04-06T11:29:25.870Z,100243.94
2023-04-06T11:31:54.421Z,100246.53
2023-04-06T11:34:26.216Z,100252.94
2023-04-06T11:37:01.453Z,100270.44
2023-04-06T11:39:29.809Z,100287.41
2023-04-06T11:42:01.586Z,100225.84
2023-04-06T11:44:42.679Z,100283.78
2023-04-06T11:47:11.173Z,100274.94
2023-04-06T11:49:38.955Z,100244.09
2023-04-06T11:52:18.640Z,100306.94
2023-04-06T11:54:46.407Z,100307.31
2023-04-06T11:57:13.110Z,100248.03
2023-04-06T11:59:40.291Z,100229.34
2023-04-06T12:02:07.604Z,100248.09
2023-04-06T12:04:34.302Z,100324.75
2023-04-06T12:07:01.116Z,100292.66
2023-04-06T12:09:27.814Z,100242.66
2023-04-06T12:11:54.462Z,100292.59
2023-04-06T12:14:21.964Z,100318.88
2023-04-06T12:16:48.712Z,100317.47
2023-04-06T12:19:15.536Z,100330.38
2023-04-06T12:21:43.025Z,100287.13
2023-04-06T12:24:09.678Z,100277.81
2023-04-06T12:26:38.191Z,100255.63
2023-04-06T12:29:08.444Z,100275.81
2023-04-06T12:31:40.212Z,100273.78
2023-04-06T12:34:07.440Z,100283.97
2023-04-06T12:36:34.781Z,100271.44
2023-04-06T12:39:02.129Z,100320.03
2023-04-06T12:41:29.843Z,100309.78
2023-04-06T12:43:57.113Z,100327.22
2023-04-06T12:46:24.564Z,100322.06
2023-04-06T12:48:54.718Z,100269.72
2023-04-06T12:51:21.650Z,100324.97
2023-04-06T12:53:48.667Z,100315.88
2023-04-06T12:56:19.298Z,100326.56
2023-04-06T12:58:46.626Z,100322.97
2023-04-06T13:01:14.835Z,100312.72
2023-04-06T13:03:42.603Z,100289.00
2023-04-06T13:06:10.043Z,100341.00
2023-04-06T13:08:41.421Z,100329.16
2023-04-06T13:11:10.132Z,100329.72
2023-04-06T13:13:37.642Z,100327.25
2023-04-06T13:16:06.842Z,100333.41
2023-04-06T13:18:34.223Z,100325.38
2023-04-06T13:21:00.957Z,100319.84
2023-04-06T13:23:28.023Z,100298.22
2023-04-06T13:26:08.364Z,100334.28
2023-04-06T13:28:38.255Z,100308.97
2023-04-06T13:31:05.007Z,100298.41
2023-04-06T13:33:32.123Z,100318.09
2023-04-06T13:36:00.233Z,100322.16
2023-04-06T13:38:27.022Z,100314.59
2023-04-06T13:40:55.786Z,100303.47
2023-04-06T13:43:22.690Z,100307.06
2023-04-06T13:45:56.007Z,100331.75
2023-04-06T13:48:23.060Z,100332.56
2023-04-06T13:50:49.765Z,100328.66
2023-04-06T13:53:16.579Z,100347.81
2023-04-06T13:55:52.910Z,100290.56
2023-04-06T13:58:19.512Z,100347.19
2023-04-06T14:00:46.362Z,100358.41
2023-04-06T14:03:13.210Z,100357.84
2023-04-06T14:05:39.925Z,100321.47
2023-04-06T14:08:06.542Z,100363.88
2023-04-06T14:10:38.445Z,100342.63
2023-04-06T14:13:05.258Z,100377.25
2023-04-06T14:15:31.854Z,100362.09
2023-04-06T14:17:58.680Z,100333.34
2023-04-06T14:20:25.310Z,100333.84
2023-04-06T14:22:53.638Z,100330.56
2023-04-06T14:25:21.134Z,100310.63
2023-04-06T14:27:47.735Z,100316.84
2023-04-06T14:30:14.955Z,100323.59
2023-04-06T14:32:41.994Z,100340.50
2023-04-06T14:35:09.173Z,100374.28
2023-04-06T14:37:35.920Z,100362.72
2023-04-06T14:40:03.801Z,100323.28
2023-04-06T14:42:30.885Z,100381.66
2023-04-06T14:44:57.641Z,100346.88
2023-04-06T14:47:24.329Z,100363.38
2023-04-06T14:49:53.086Z,100402.19
2023-04-06T14:52:19.817Z,100361.22
2023-04-06T14:54:46.547Z,100373.28
2023-04-06T14:57:13.142Z,100387.59
2023-04-06T14:59:40.365Z,100418.13
2023-04-06T15:02:08.125Z,100413.66
2023-04-06T15:04:38.351Z,100426.47
2023-04-06T15:07:05.150Z,100380.56
2023-04-06T15:09:31.926Z,100441.41
2023-04-06T15:11:58.842Z,100365.81
2023-04-06T15:14:25.997Z,100403.44
2023-04-06T15:16:52.727Z,100358.91
2023-04-06T15:19:19.548Z,100402.38
2023-04-06T15:21:46.228Z,100434.50
2023-04-06T15:24:12.925Z,100442.06
2023-04-06T15:26:39.556Z,100395.75
2023-04-06T15:29:06.363Z,100440.09
2023-04-06T15:31:38.259Z,100424.31
2023-04-06T15:34:09.140Z,100392.88
2023-04-06T15:36:37.135Z,100455.50
2023-04-06T15:39:04.471Z,100409.22
2023-04-06T15:41:31.776Z,100440.94
2023-04-06T15:43:58.633Z,100400.53
2023-04-06T15:46:28.148Z,100460.09
2023-04-06T15:48:56.091Z,100469.28
2023-04-06T15:51:24.142Z,100452.63
2023-04-06T15:53:50.844Z,100469.28
2023-04-06T15:56:17.511Z,100452.41
2023-04-06T15:58:44.261Z,100409.97
2023-04-06T16:01:20.160Z,100457.41
2023-04-06T16:03:47.011Z,100497.09
2023-04-06T16:06:13.854Z,100438.31
2023-04-06T16:08:41.117Z,100421.50
2023-04-06T16:11:08.392Z,100482.97
2023-04-06T16:13:36.087Z,100501.06
2023-04-06T16:16:04.127Z,100465.19
2023-04-06T16:18:32.508Z,100455.72
2023-04-06T16:21:01.127Z,100460.22
2023-04-06T16:23:28.387Z,100405.06
2023-04-06T16:26:04.867Z,100436.41
2023-04-06T16:28:31.699Z,100483.31
2023-04-06T16:30:59.754Z,100495.06
2023-04-06T16:33:26.576Z,100522.28
2023-04-06T16:35:53.315Z,100449.38
2023-04-06T16:38:24.268Z,100501.19
2023-04-06T16:41:03.105Z,100498.44
2023-04-06T16:43:29.884Z,100447.72
2023-04-06T16:45:57.981Z,100421.75
2023-04-06T16:48:27.078Z,100460.31
2023-04-06T16:50:53.955Z,100451.94
2023-04-06T16:53:20.816Z,100514.03
2023-04-06T16:55:47.615Z,100364.41
2023-04-06T16:58:14.600Z,100433.09
2023-04-06T17:00:45.249Z,100364.78
2023-04-06T17:03:12.331Z,100431.69
2023-04-06T17:05:39.136Z,100490.31
2023-04-06T17:08:05.994Z,100472.88
2023-04-06T17:10:33.772Z,100527.94
2023-04-06T17:13:03.993Z,100496.81
2023-04-06T17:15:31.814Z,100495.31
2023-04-06T17:17:58.600Z,100517.25
2023-04-06T17:20:25.270Z,100477.00
2023-04-06T17:22:51.994Z,100504.03
2023-04-06T17:25:19.037Z,100518.59
2023-04-06T17:27:45.969Z,100568.19
2023-04-06T17:30:14.156Z,100544.72
2023-04-06T17:32:43.576Z,100519.75
2023-04-06T17:35:11.653Z,100554.56
2023-04-06T17:37:39.075Z,100529.66
2023-04-06T17:40:06.876Z,100567.72
2023-04-06T17:42:33.546Z,100548.50
2023-04-06T17:45:00.467Z,100582.16
2023-04-06T17:47:32.429Z,100531.31
2023-04-06T17:49:59.639Z,100581.13
2023-04-06T17:52:27.508Z,100533.81
2023-04-06T17:54:54.420Z,100596.69
2023-04-06T17:57:21.625Z,100611.13
2023-04-06T17:59:48.686Z,100613.16
2023-04-06T18:02:16.214Z,100659.94
2023-04-06T18:04:44.297Z,100600.53
2023-04-06T18:07:11.537Z,100618.63
2023-04-06T18:09:40.005Z,100599.00
2023-04-06T18:12:07.273Z,100602.59
2023-04-06T18:14:33.994Z,100647.31
2023-04-06T18:17:00.686Z,100645.56
2023-04-06T18:19:28.886Z,100613.63
2023-04-06T18:21:56.012Z,100636.38
2023-04-06T18:24:32.168Z,100609.53
2023-04-06T18:27:07.808Z,100668.41
2023-04-06T18:29:36.126Z,100653.19
2023-04-06T18:32:02.816Z,100677.50
2023-04-06T18:34:29.497Z,100668.81
2023-04-06T18:36:56.274Z,100650.28
2023-04-06T18:39:23.162Z,100689.19
2023-04-06T18:41:49.808Z,100674.22
2023-04-06T18:44:16.449Z,100658.75
2023-04-06T18:46:46.706Z,100729.28
2023-04-06T18:49:13.423Z,100690.94
2023-04-06T18:51:42.972Z,100690.00
2023-04-06T18:54:09.887Z,100691.25
2023-04-06T18:56:38.495Z,100732.09
2023-04-06T18:59:05.242Z,100694.00
2023-04-06T19:01:33.138Z,100738.22
2023-04-06T19:04:00.646Z,100719.06
2023-04-06T19:06:28.066Z,100663.22
2023-04-06T19:08:55.228Z,100742.47
2023-04-06T19:11:25.190Z,100698.34
2023-04-06T19:13:54.208Z,100771.16
2023-04-06T19:16:21.180Z,100731.41
2023-04-06T19:18:48.213Z,100707.38
2023-04-06T19:21:15.968Z,100730.09
2023-04-06T19:23:43.896Z,100760.00
2023-04-06T19:26:12.183Z,100746.03
2023-04-06T19:28:39.273Z,100712.28
2023-04-06T19:31:08.767Z,100794.31
2023-04-06T19:33:36.285Z,100772.91
2023-04-06T19:36:04.433Z,100806.09
2023-04-06T19:38:33.389Z,100795.31
2023-04-06T19:41:01.302Z,100792.31
2023-04-06T19:43:28.200Z,100790.16
2023-04-06T19:45:54.857Z,100786.78
2023-04-06T19:48:21.621Z,100769.81
2023-04-06T19:50:48.325Z,100769.38
2023-04-06T19:53:14.973Z,100812.78
2023-04-06T19:55:41.538Z,100813.00
2023-04-06T19:58:08.196Z,100835.03
2023-04-06T20:00:34.859Z,100846.63
2023-04-06T20:03:01.636Z,100851.00
2023-04-06T20:05:28.615Z,100835.63
2023-04-06T20:07:55.279Z,100826.88
2023-04-06T20:10:22.027Z,100812.44
2023-04-06T20:12:50.556Z,100820.91
2023-04-06T20:15:19.930Z,100856.41
2023-04-06T20:17:46.687Z,100789.00
2023-04-06T20:20:13.434Z,100856.63
2023-04-06T20:22:41.812Z,100817.34
2023-04-06T20:25:08.905Z,100824.34
2023-04-06T20:27:35.610Z,100789.13
2023-04-06T20:30:02.309Z,100861.03
2023-04-06T20:32:28.997Z,100854.00
2023-04-06T20:34:56.429Z,100825.97
2023-04-06T20:37:23.139Z,100850.19
2023-04-06T20:39:49.938Z,100863.06
2023-04-06T20:42:16.779Z,100864.38
2023-04-06T20:44:43.564Z,100872.78
2023-04-06T20:47:10.284Z,100855.03
2023-04-06T20:49:37.020Z,100826.16
2023-04-06T20:52:03.783Z,100871.53
2023-04-06T20:54:30.525Z,100852.84
2023-04-06T20:57:00.064Z,100816.84
2023-04-06T20:59:29.757Z,100890.59
2023-04-06T21:01:56.881Z,100862.53
2023-04-06T21:04:23.828Z,100900.53
2023-04-06T21:06:50.893Z,100856.16
2023-04-06T21:09:19.837Z,100851.13
2023-04-06T21:11:46.986Z,100875.16
2023-04-06T21:14:13.753Z,100891.50
2023-04-06T21:16:40.788Z,100919.69
2023-04-06T21:19:08.244Z,100884.00
2023-04-06T21:21:35.017Z,100905.59
2023-04-06T21:24:01.937Z,100849.69
2023-04-06T21:26:28.752Z,100893.63
2023-04-06T21:28:55.536Z,100865.34
2023-04-06T21:31:22.454Z,100893.63
2023-04-06T21:33:49.340Z,100902.19
2023-04-06T21:36:16.468Z,100929.81
2023-04-06T21:38:43.231Z,100891.34
2023-04-06T21:41:09.950Z,100938.66
2023-04-06T21:43:36.793Z,100910.31
2023-04-06T21:46:03.587Z,100914.56
2023-04-06T21:48:30.539Z,100916.31
2023-04-06T21:50:57.265Z,100887.31
2023-04-06T21:53:23.945Z,100906.31
2023-04-06T21:55:51.260Z,100925.84
2023-04-06T21:58:18.067Z,100894.22
2023-04-06T22:00:44.781Z,100943.13
2023-04-06T22:03:11.711Z,100920.22
2023-04-06T22:05:38.600Z,100935.06
2023-04-06T22:08:05.468Z,100935.81
2023-04-06T22:10:32.187Z,100947.00
2023-04-06T22:12:59.022Z,100954.81
2023-04-06T22:15:26.765Z,100948.00
2023-04-06T22:17:53.602Z,100945.34
2023-04-06T22:20:20.428Z,100971.25
2023-04-06T22:22:47.206Z,100933.59
2023-04-06T22:25:13.957Z,100961.09
2023-04-06T22:27:40.806Z,100932.88
2023-04-06T22:30:08.347Z,100942.22
2023-04-06T22:32:35.199Z,100982.91
2023-04-06T22:35:02.127Z,100944.97
2023-04-06T22:37:28.864Z,100965.78
2023-04-06T22:39:55.680Z,100972.59
2023-04-06T22:42:22.362Z,100998.50
2023-04-06T22:44:49.151Z,100972.66
2023-04-06T22:47:16.134Z,100970.31
2023-04-06T22:49:42.890Z,100978.13
2023-04-06T22:52:09.573Z,100986.41
2023-04-06T22:54:36.417Z,100964.22
2023-04-06T22:57:03.108Z,100977.25
2023-04-06T22:59:29.899Z,100999.06
2023-04-06T23:01:57.131Z,100960.81
2023-04-06T23:04:24.082Z,101027.97
2023-04-06T23:06:51.088Z,100979.78
2023-04-06T23:09:17.937Z,101024.44
2023-04-06T23:11:44.772Z,101015.91
2023-04-06T23:14:11.597Z,100992.66
2023-04-06T23:16:38.419Z,100994.63
2023-04-06T23:19:05.145Z,101042.69
2023-04-06T23:21:33.135Z,101014.44
2023-04-06T23:24:00.875Z,100996.50
2023-04-06T23:26:27.742Z,101042.91
2023-04-06T23:28:55.184Z,101027.50
2023-04-06T23:31:21.961Z,101019.69
2023-04-06T23:33:48.762Z,101030.91
2023-04-06T23:36:15.659Z,101027.56
2023-04-06T23:38:42.446Z,101036.03
2023-04-06T23:41:09.132Z,101038.75
2023-04-06T23:43:36.089Z,100998.25
2023-04-06T23:46:02.853Z,101063.06
2023-04-06T23:48:29.641Z,101026.81
2023-04-06T23:50:56.613Z,100999.63
2023-04-06T23:53:23.395Z,101015.78
2023-04-06T23:55:50.373Z,101059.72
2023-04-06T23:58:17.029Z,101065.63
